Time;durP1;ratioP1;P1;durP2;ratioP2;P2;SDS_P1;SDS_P2;PMS_P1;PMS_P2;Temp;Humidity;BMP_temperature;BMP_pressure;BME280_temperature;BME280_humidity;BME280_pressure;Samples;Min_cycle;Max_cycle;Signal;HPM_P1;HPM_P2
2021/12/24 00:02:58;;;;;;;52.85;22.35;;;;;;;-2.40;91.38;97496.56;2171392;82;21075;-59
2021/12/24 00:05:59;;;;;;;53.17;23.45;;;;;;;-2.38;91.45;97489.67;2192459;81;20983;-59
2021/12/24 00:09:00;;;;;;;57.10;22.48;;;;;;;-2.36;91.31;97485.77;2171864;82;21460;-60
2021/12/24 00:12:05;;;;;;;50.85;23.73;;;;;;;-2.38;91.99;97474.26;2192437;81;21058;-59
2021/12/24 00:15:14;;;;;;;53.20;23.92;;;;;;;-2.37;91.66;97472.09;2146890;82;21143;-60
2021/12/24 00:36:17;;;;;;;50.85;21.23;;;;;;;-2.23;91.86;97431.83;2165526;81;21466;-59
2021/12/24 00:39:18;;;;;;;48.83;21.48;;;;;;;-2.21;91.93;97425.36;2171778;82;21028;-59
2021/12/24 00:42:19;;;;;;;51.60;21.33;;;;;;;-2.20;91.86;97425.30;2192157;81;20985;-59
2021/12/24 00:45:19;;;;;;;48.08;20.25;;;;;;;-2.21;91.96;97418.51;2171722;82;20972;-59
2021/12/24 00:48:20;;;;;;;56.88;22.55;;;;;;;-2.17;92.15;97411.53;2189554;81;21474;-59
2021/12/24 00:51:30;;;;;;;50.35;22.52;;;;;;;-2.16;92.23;97400.38;2168209;82;20973;-59
2021/12/24 00:57:25;;;;;;;52.88;22.77;;;;;;;-2.12;92.63;97404.52;2141561;82;20993;-59
2021/12/24 01:00:25;;;;;;;49.65;21.48;;;;;;;-2.10;92.33;97402.30;2185432;81;21438;-60
2021/12/24 01:03:26;;;;;;;54.10;23.02;;;;;;;-2.09;92.52;97389.00;2168159;82;21025;-60
2021/12/24 01:06:26;;;;;;;52.70;21.90;;;;;;;-2.07;93.49;97377.39;2185548;81;20976;-60
2021/12/24 01:09:27;;;;;;;52.27;23.25;;;;;;;-2.07;93.72;97375.64;2168071;82;21028;-59
2021/12/24 01:12:27;;;;;;;48.78;22.02;;;;;;;-2.06;93.83;97380.36;2185338;81;20983;-58
2021/12/24 01:15:29;;;;;;;52.80;21.85;;;;;;;-2.05;93.78;97377.73;2168153;82;21010;-59
2021/12/24 01:18:41;;;;;;;52.03;22.60;;;;;;;-2.03;94.00;97372.55;2185657;81;21459;-59
2021/12/24 01:21:52;;;;;;;54.20;22.35;;;;;;;-2.00;93.93;97363.44;2141531;82;21548;-60
2021/12/24 01:24:44;;;;;;;47.10;20.00;;;;;;;-1.99;93.82;97355.67;2156428;81;20999;-59
2021/12/24 01:28:01;;;;;;;52.88;22.55;;;;;;;-1.98;94.08;97352.69;2141508;82;21013;-59
2021/12/24 01:42:48;;;;;;;47.45;19.52;;;;;;;-1.86;94.47;97320.58;2185242;81;21040;-59
2021/12/24 01:45:49;;;;;;;49.20;20.55;;;;;;;-1.87;95.45;97315.03;2168396;82;21491;-59
2021/12/24 01:48:49;;;;;;;51.33;19.80;;;;;;;-1.84;95.69;97295.64;2185287;80;20996;-59
2021/12/24 01:51:50;;;;;;;45.03;19.27;;;;;;;-1.83;95.96;97304.58;2168411;82;20969;-59
2021/12/24 01:54:52;;;;;;;43.50;17.55;;;;;;;-1.81;96.16;97287.81;2185275;81;20999;-59
2021/12/24 01:57:52;;;;;;;44.63;18.65;;;;;;;-1.79;96.55;97288.16;2168495;82;21294;-59
2021/12/24 02:00:53;;;;;;;41.68;17.23;;;;;;;-1.78;97.16;97278.28;2185438;81;21051;-59
2021/12/24 02:03:53;;;;;;;41.50;17.75;;;;;;;-1.76;97.42;97283.36;2168010;82;21055;-59
2021/12/24 02:06:54;;;;;;;42.03;17.87;;;;;;;-1.73;97.35;97275.99;2185232;81;20989;-59
2021/12/24 02:09:54;;;;;;;44.18;18.87;;;;;;;-1.70;97.72;97261.73;2168169;82;21464;-60
2021/12/24 02:12:55;;;;;;;42.73;18.40;;;;;;;-1.68;97.66;97259.94;2185348;81;20987;-60
2021/12/24 02:31:05;;;;;;;35.63;14.38;;;;;;;-1.50;98.37;97225.82;2156434;81;21553;-59
2021/12/24 02:34:05;;;;;;;37.42;16.75;;;;;;;-1.50;98.70;97193.67;2168476;82;20962;-59
2021/12/24 02:37:06;;;;;;;34.45;14.45;;;;;;;-1.48;99.17;97227.05;2185619;81;20936;-60
2021/12/24 02:40:06;;;;;;;36.58;16.52;;;;;;;-1.48;99.64;97224.47;2168197;82;20969;-60
2021/12/24 02:43:12;;;;;;;38.48;16.77;;;;;;;-1.46;99.73;97226.56;2185536;81;20925;-59
2021/12/24 02:46:14;;;;;;;40.25;15.55;;;;;;;-1.44;99.86;97215.32;2141783;82;21528;-60
2021/12/24 02:49:16;;;;;;;37.60;17.35;;;;;;;-1.43;99.78;97202.00;2162807;81;21022;-60
2021/12/24 02:55:16;;;;;;;34.40;14.90;;;;;;;-1.41;100.00;97178.33;2170797;81;20983;-60
2021/12/24 02:58:17;;;;;;;39.95;16.70;;;;;;;-1.37;100.00;97202.22;2172266;81;21537;-60
2021/12/24 03:01:18;;;;;;;37.58;16.07;;;;;;;-1.38;100.00;97188.95;2196349;81;21014;-60
2021/12/24 03:04:18;;;;;;;33.60;14.28;;;;;;;-1.36;100.00;97183.32;2172524;82;21041;-59
2021/12/24 03:07:19;;;;;;;36.35;15.80;;;;;;;-1.36;100.00;97193.61;2196202;81;20968;-60
2021/12/24 03:10:19;;;;;;;37.38;16.37;;;;;;;-1.34;100.00;97182.80;2172281;81;20965;-60
2021/12/24 03:13:19;;;;;;;40.75;16.70;;;;;;;-1.32;100.00;97200.28;2196115;81;21439;-60
2021/12/24 03:16:20;;;;;;;33.63;13.90;;;;;;;-1.30;100.00;97177.47;2172127;81;20985;-60
2021/12/24 03:19:25;;;;;;;35.83;15.63;;;;;;;-1.29;100.00;97181.72;2196147;81;20984;-60
2021/12/24 03:22:37;;;;;;;32.80;13.03;;;;;;;-1.27;100.00;97169.62;2149887;82;21491;-59
2021/12/24 03:25:25;;;;;;;36.75;16.37;;;;;;;-1.27;100.00;97173.94;2170646;81;21029;-59
2021/12/24 03:28:26;;;;;;;39.63;15.70;;;;;;;-1.26;100.00;97168.73;2172388;81;20985;-59
2021/12/24 03:31:26;;;;;;;34.10;14.73;;;;;;;-1.24;100.00;97168.20;2196463;81;20943;-60
2021/12/24 03:34:26;;;;;;;34.63;14.83;;;;;;;-1.23;100.00;97151.88;2172316;81;20981;-60
2021/12/24 03:37:27;;;;;;;34.80;15.23;;;;;;;-1.22;100.00;97148.42;2196057;81;21007;-61
2021/12/24 03:40:28;;;;;;;35.70;14.65;;;;;;;-1.20;100.00;97137.23;2171910;81;21530;-59
2021/12/24 03:43:28;;;;;;;31.40;13.43;;;;;;;-1.19;100.00;97144.89;2196585;81;20970;-59
2021/12/24 03:46:38;;;;;;;34.45;15.15;;;;;;;-1.16;100.00;97155.52;2172358;81;21019;-60
2021/12/24 03:49:37;;;;;;;33.08;15.10;;;;;;;-1.13;100.00;97160.07;2163994;81;21035;-59
2021/12/24 03:55:36;;;;;;;34.08;14.25;;;;;;;-1.09;100.00;97138.47;2156311;81;21079;-60
2021/12/24 03:58:36;;;;;;;33.90;14.68;;;;;;;-1.06;100.00;97125.47;2168074;82;20973;-59
2021/12/24 04:01:37;;;;;;;33.55;14.53;;;;;;;-1.05;100.00;97135.30;2185396;81;21494;-59
2021/12/24 04:04:37;;;;;;;32.28;13.78;;;;;;;-1.04;100.00;97135.70;2168107;82;20981;-60
2021/12/24 04:07:38;;;;;;;31.82;13.98;;;;;;;-1.02;100.00;97133.05;2185500;81;21060;-59
2021/12/24 04:13:39;;;;;;;34.45;15.35;;;;;;;-1.02;100.00;97142.06;2185457;81;21064;-60
2021/12/24 04:16:39;;;;;;;33.78;15.30;;;;;;;-1.01;100.00;97136.02;2168126;82;20961;-59
2021/12/24 04:25:45;;;;;;;32.93;14.15;;;;;;;-0.97;100.00;97126.81;2156298;81;21632;-59
2021/12/24 04:28:46;;;;;;;32.15;15.03;;;;;;;-0.94;100.00;97131.01;2168082;82;20980;-60
2021/12/24 04:31:55;;;;;;;32.35;13.90;;;;;;;-0.94;100.00;97114.28;2185563;81;20960;-59
2021/12/24 04:34:51;;;;;;;34.50;14.63;;;;;;;-0.93;100.00;97121.11;2141741;82;21028;-60
2021/12/24 05:05:20;;;;;;;41.83;17.07;;;;;;;-0.84;100.00;97110.88;2142003;82;20118;-60
2021/12/24 05:11:13;;;;;;;35.05;16.15;;;;;;;-0.81;100.00;97109.45;2168121;82;20980;-59
2021/12/24 05:14:15;;;;;;;38.40;15.88;;;;;;;-0.80;100.00;97110.67;2185317;81;21035;-60
2021/12/24 05:23:20;;;;;;;39.53;17.50;;;;;;;-0.74;100.00;97100.09;2141752;82;21444;-60
2021/12/24 05:26:21;;;;;;;36.42;16.35;;;;;;;-0.73;100.00;97084.22;2185496;81;21047;-60
2021/12/24 05:29:21;;;;;;;38.70;17.17;;;;;;;-0.73;100.00;97087.62;2168306;82;21016;-60
2021/12/24 05:32:22;;;;;;;36.90;16.75;;;;;;;-0.72;100.00;97088.02;2185394;81;20999;-60
2021/12/24 05:35:22;;;;;;;41.23;18.70;;;;;;;-0.70;100.00;97082.33;2168084;82;21484;-60
2021/12/24 05:38:25;;;;;;;40.00;16.97;;;;;;;-0.68;100.00;97077.58;2184882;81;20995;-60
2021/12/24 05:41:25;;;;;;;36.75;15.83;;;;;;;-0.68;100.00;97092.56;2141385;82;21004;-60
2021/12/24 05:44:26;;;;;;;36.40;15.45;;;;;;;-0.66;100.00;97084.77;2185282;81;21055;-59
2021/12/24 05:47:26;;;;;;;38.67;17.30;;;;;;;-0.65;100.00;97080.84;2168030;82;21550;-60
2021/12/24 05:50:27;;;;;;;38.73;16.95;;;;;;;-0.62;100.00;97078.12;2185031;81;21505;-60
2021/12/24 05:53:29;;;;;;;39.03;17.50;;;;;;;-0.60;100.00;97090.50;2141257;82;21476;-60
2021/12/24 05:56:30;;;;;;;37.35;16.48;;;;;;;-0.58;100.00;97083.52;2185514;81;21050;-59
2021/12/24 05:59:31;;;;;;;38.80;17.17;;;;;;;-0.56;100.00;97088.61;2168392;82;20984;-60
2021/12/24 06:02:31;;;;;;;38.38;17.25;;;;;;;-0.54;100.00;97072.66;2185407;81;21043;-60
2021/12/24 06:05:32;;;;;;;34.78;15.83;;;;;;;-0.49;100.00;97068.58;2168061;82;20970;-60
2021/12/24 06:08:33;;;;;;;37.58;17.92;;;;;;;-0.46;100.00;97077.45;2185765;81;21411;-60
2021/12/24 06:11:36;;;;;;;36.95;16.45;;;;;;;-0.45;100.00;97090.27;2141383;82;21571;-61
2021/12/24 06:14:39;;;;;;;35.50;15.93;;;;;;;-0.44;100.00;97082.10;2185585;81;20960;-60
2021/12/24 06:17:40;;;;;;;35.63;16.30;;;;;;;-0.43;100.00;97091.05;2142065;82;21468;-60
2021/12/24 06:20:41;;;;;;;37.10;16.43;;;;;;;-0.40;100.00;97084.47;2185644;81;21003;-60
2021/12/24 06:23:46;;;;;;;37.58;17.35;;;;;;;-0.36;100.00;97087.73;2140952;82;21040;-59
2021/12/24 06:26:46;;;;;;;30.92;13.15;;;;;;;-0.34;100.00;97078.20;2156520;81;20975;-60
2021/12/24 06:29:47;;;;;;;36.00;16.90;;;;;;;-0.31;100.00;97096.56;2168160;82;21001;-59
2021/12/24 06:32:47;;;;;;;39.70;18.00;;;;;;;-0.31;100.00;97087.08;2185557;81;20983;-59
2021/12/24 06:35:48;;;;;;;36.95;16.65;;;;;;;-0.28;100.00;97077.09;2168351;82;20989;-60
2021/12/24 06:38:48;;;;;;;38.35;16.90;;;;;;;-0.24;100.00;97091.52;2185434;81;21062;-60
2021/12/24 06:41:49;;;;;;;39.67;19.15;;;;;;;-0.21;100.00;97079.77;2168581;82;21004;-59
2021/12/24 06:44:49;;;;;;;39.58;18.87;;;;;;;-0.20;100.00;97082.28;2185757;81;20979;-60
2021/12/24 06:47:50;;;;;;;37.65;18.75;;;;;;;-0.17;100.00;97068.42;2168265;82;21056;-60
2021/12/24 06:50:50;;;;;;;34.90;17.10;;;;;;;-0.15;100.00;97088.51;2185181;81;21537;-60
2021/12/24 06:53:51;;;;;;;36.03;17.00;;;;;;;-0.12;100.00;97072.08;2168345;82;21012;-59
2021/12/24 06:56:53;;;;;;;34.65;15.78;;;;;;;-0.09;100.00;97062.44;2156490;81;21542;-60
2021/12/24 06:59:53;;;;;;;34.65;14.83;;;;;;;-0.02;100.00;97071.56;2168279;82;21044;-60
2021/12/24 07:02:54;;;;;;;36.80;16.02;;;;;;;0.02;100.00;97050.36;2185321;81;21031;-59
2021/12/24 07:05:54;;;;;;;32.95;14.65;;;;;;;0.07;100.00;97058.73;2168190;82;21063;-60
2021/12/24 07:08:55;;;;;;;30.90;13.55;;;;;;;0.10;100.00;97061.16;2185338;81;21003;-60
2021/12/24 07:11:55;;;;;;;30.12;12.90;;;;;;;0.14;100.00;97063.12;2168328;82;20977;-60
2021/12/24 07:14:56;;;;;;;35.73;15.23;;;;;;;0.16;100.00;97065.19;2185564;81;21482;-59
2021/12/24 07:17:56;;;;;;;34.90;15.53;;;;;;;0.22;100.00;97082.13;2168586;82;20965;-60
2021/12/24 07:20:57;;;;;;;34.95;15.48;;;;;;;0.23;100.00;97082.05;2185584;81;20995;-60
2021/12/24 07:23:57;;;;;;;29.23;13.22;;;;;;;0.26;100.00;97084.48;2168443;82;20981;-60
2021/12/24 07:26:57;;;;;;;29.63;13.05;;;;;;;0.29;100.00;97071.43;2185603;81;20983;-60
2021/12/24 07:29:58;;;;;;;33.20;13.83;;;;;;;0.32;100.00;97073.03;2168307;82;20972;-60
2021/12/24 07:32:58;;;;;;;30.37;12.90;;;;;;;0.35;100.00;97063.86;2185495;81;21446;-60
2021/12/24 07:35:59;;;;;;;39.18;15.75;;;;;;;0.40;100.00;97075.23;2168226;82;21027;-60
2021/12/24 07:38:59;;;;;;;37.73;16.48;;;;;;;0.43;100.00;97071.22;2185542;81;20972;-60
2021/12/24 07:42:00;;;;;;;34.58;15.08;;;;;;;0.46;100.00;97064.61;2168097;82;21005;-60
2021/12/24 07:45:01;;;;;;;31.97;14.93;;;;;;;0.51;100.00;97056.21;2185612;81;21003;-61
2021/12/24 07:54:04;;;;;;;33.18;14.50;;;;;;;0.63;100.00;97060.78;2168528;82;21488;-60
2021/12/24 07:57:05;;;;;;;37.45;16.32;;;;;;;0.67;100.00;97062.74;2185471;81;20976;-60
2021/12/24 08:00:05;;;;;;;34.48;15.43;;;;;;;0.74;100.00;97065.40;2168376;82;21024;-61
2021/12/24 08:03:07;;;;;;;33.80;14.20;;;;;;;0.80;100.00;97059.10;2185195;81;21054;-60
2021/12/24 08:06:07;;;;;;;36.83;16.45;;;;;;;0.82;100.00;97062.42;2168280;82;20973;-60
2021/12/24 08:09:08;;;;;;;31.57;13.65;;;;;;;0.83;100.00;97049.91;2185112;81;20980;-60
2021/12/24 08:12:08;;;;;;;31.50;12.15;;;;;;;0.83;100.00;97055.07;2168161;82;21460;-60
2021/12/24 08:15:09;;;;;;;30.72;13.18;;;;;;;0.82;100.00;97077.48;2185431;81;21487;-60
2021/12/24 08:18:09;;;;;;;31.12;12.28;;;;;;;0.83;100.00;97074.43;2167945;82;21012;-60
2021/12/24 08:21:10;;;;;;;34.50;14.83;;;;;;;0.85;100.00;97066.17;2185491;81;21102;-60
2021/12/24 08:24:11;;;;;;;37.35;15.68;;;;;;;0.88;100.00;97060.00;2168249;82;21009;-61
2021/12/24 08:27:11;;;;;;;37.17;15.95;;;;;;;0.90;100.00;97073.68;2185401;81;20956;-60
2021/12/24 08:30:12;;;;;;;33.55;14.60;;;;;;;0.93;100.00;97076.10;2168193;82;21543;-61
2021/12/24 08:33:15;;;;;;;34.92;14.68;;;;;;;0.93;100.00;97069.66;2185652;81;21007;-60
2021/12/24 08:36:15;;;;;;;35.80;16.27;;;;;;;0.91;100.00;97074.89;2141574;82;21008;-60
2021/12/24 08:39:17;;;;;;;38.48;15.68;;;;;;;0.91;100.00;97077.47;2185347;81;20987;-60
2021/12/24 08:42:17;;;;;;;38.65;17.42;;;;;;;0.93;100.00;97063.20;2168370;82;21008;-60
2021/12/24 08:45:17;;;;;;;42.17;18.80;;;;;;;0.98;100.00;97050.91;2185449;81;21478;-60
2021/12/24 08:48:18;;;;;;;41.60;19.00;;;;;;;1.01;100.00;97062.36;2168056;82;21452;-59
2021/12/24 08:51:18;;;;;;;37.23;17.42;;;;;;;1.01;100.00;97067.06;2185364;80;21055;-60
2021/12/24 08:54:21;;;;;;;39.00;18.75;;;;;;;1.01;100.00;97064.94;2168491;82;20941;-60
2021/12/24 08:57:21;;;;;;;37.35;18.02;;;;;;;1.02;100.00;97044.20;2156320;81;21577;-60
2021/12/24 09:00:23;;;;;;;36.58;17.15;;;;;;;1.07;100.00;97051.72;2168325;82;20973;-60
2021/12/24 09:03:24;;;;;;;45.28;19.57;;;;;;;1.10;100.00;97052.02;2185200;81;21059;-60
2021/12/24 09:06:24;;;;;;;49.40;22.98;;;;;;;1.13;100.00;97046.69;2168164;82;21509;-60
2021/12/24 09:09:24;;;;;;;51.18;22.80;;;;;;;1.14;100.00;97041.45;2185391;81;20968;-60
2021/12/24 09:12:25;;;;;;;42.83;18.85;;;;;;;1.14;100.00;97032.41;2168218;82;21012;-59
2021/12/24 09:15:29;;;;;;;42.00;16.97;;;;;;;1.15;100.00;97030.22;2185502;81;21003;-60
2021/12/24 09:18:28;;;;;;;31.82;12.60;;;;;;;1.16;100.00;97022.00;2141775;82;21515;-60
2021/12/24 09:21:28;;;;;;;33.53;14.13;;;;;;;1.21;100.00;97022.14;2185482;81;20987;-59
2021/12/24 09:24:30;;;;;;;34.40;14.70;;;;;;;1.29;100.00;97019.61;2168210;82;20997;-59
2021/12/24 09:27:31;;;;;;;37.67;17.40;;;;;;;1.37;100.00;97020.05;2185383;81;20983;-59
2021/12/24 09:30:31;;;;;;;43.73;18.35;;;;;;;1.44;100.00;97007.19;2168411;82;20989;-59
2021/12/24 09:33:32;;;;;;;39.35;16.48;;;;;;;1.49;100.00;97001.30;2185313;81;20973;-60
2021/12/24 09:36:32;;;;;;;39.53;16.37;;;;;;;1.58;100.00;96996.56;2168251;82;21012;-60
2021/12/24 09:39:33;;;;;;;31.90;12.65;;;;;;;1.63;100.00;97001.86;2185331;81;20980;-59
2021/12/24 09:42:34;;;;;;;33.28;14.68;;;;;;;1.63;100.00;97005.73;2168164;82;21329;-60
2021/12/24 09:45:35;;;;;;;40.98;17.95;;;;;;;1.64;100.00;96991.91;2185140;81;21038;-59
2021/12/24 09:48:35;;;;;;;56.25;25.20;;;;;;;1.73;100.00;96987.98;2168155;82;20983;-60
2021/12/24 09:51:37;;;;;;;39.60;16.75;;;;;;;1.80;100.00;96988.02;2185181;81;21019;-60
2021/12/24 09:54:37;;;;;;;49.33;21.90;;;;;;;1.81;100.00;96988.41;2168052;82;20954;-60
2021/12/24 09:57:38;;;;;;;36.68;16.32;;;;;;;1.83;100.00;96984.44;2185320;81;21448;-60
2021/12/24 10:00:38;;;;;;;35.15;16.00;;;;;;;1.88;100.00;96986.30;2167999;82;21528;-60
2021/12/24 10:03:40;;;;;;;41.60;17.98;;;;;;;1.90;100.00;96981.89;2185337;81;20976;-60
2021/12/24 10:06:41;;;;;;;37.13;16.23;;;;;;;1.90;100.00;96978.02;2141415;82;20985;-60
2021/12/24 10:09:42;;;;;;;36.90;15.95;;;;;;;1.87;100.00;96981.59;2185457;81;21478;-60
2021/12/24 10:12:43;;;;;;;32.23;14.10;;;;;;;1.84;100.00;96980.91;2168409;82;20976;-60
2021/12/24 10:15:43;;;;;;;34.38;13.53;;;;;;;1.81;100.00;96980.65;2185433;81;20983;-60
2021/12/24 10:18:44;;;;;;;34.78;14.83;;;;;;;1.82;100.00;96984.88;2168119;82;21012;-60
2021/12/24 10:21:44;;;;;;;33.67;12.10;;;;;;;1.80;100.00;96983.32;2185187;81;21581;-60
2021/12/24 10:24:45;;;;;;;34.10;14.33;;;;;;;1.84;100.00;96971.86;2168166;82;21017;-59
2021/12/24 10:27:45;;;;;;;37.88;15.13;;;;;;;1.89;100.00;96965.99;2185470;81;21007;-60
2021/12/24 10:30:46;;;;;;;34.98;14.50;;;;;;;1.94;100.00;96964.44;2168275;82;20977;-60
2021/12/24 10:33:46;;;;;;;36.40;13.30;;;;;;;1.97;100.00;96944.43;2185451;81;20932;-59
2021/12/24 10:36:47;;;;;;;37.63;13.88;;;;;;;2.08;100.00;96951.13;2168122;82;20976;-59
2021/12/24 10:39:48;;;;;;;34.23;15.55;;;;;;;2.17;100.00;96952.80;2185535;81;21530;-60
2021/12/24 10:42:49;;;;;;;37.83;16.15;;;;;;;2.27;100.00;96950.08;2168162;82;21009;-60
2021/12/24 10:45:50;;;;;;;36.35;16.17;;;;;;;2.32;100.00;96945.92;2185266;81;21032;-60
2021/12/24 10:48:58;;;;;;;34.45;15.98;;;;;;;2.37;100.00;96945.19;2168124;82;21032;-60
2021/12/24 10:51:54;;;;;;;41.75;18.25;;;;;;;2.40;100.00;96945.86;2156453;81;21004;-60
2021/12/24 10:54:55;;;;;;;36.20;16.23;;;;;;;2.40;99.95;96938.56;2168459;82;20965;-60
2021/12/24 10:57:57;;;;;;;32.63;14.45;;;;;;;2.37;100.00;96951.21;2185353;81;21465;-60
2021/12/24 11:00:57;;;;;;;34.65;15.65;;;;;;;2.35;100.00;96954.80;2168575;82;21523;-60
2021/12/24 11:03:58;;;;;;;42.85;20.65;;;;;;;2.35;100.00;96945.27;2185658;81;20948;-60
2021/12/24 11:06:58;;;;;;;43.25;19.25;;;;;;;2.39;100.00;96933.83;2168079;82;21021;-60
2021/12/24 11:09:59;;;;;;;40.85;18.60;;;;;;;2.39;100.00;96925.25;2185650;81;20968;-60
2021/12/24 11:12:59;;;;;;;42.38;19.57;;;;;;;2.37;100.00;96933.09;2168196;82;20989;-60
2021/12/24 11:16:02;;;;;;;41.45;18.55;;;;;;;2.33;100.00;96923.84;2185164;81;21020;-60
2021/12/24 11:19:02;;;;;;;38.33;17.77;;;;;;;2.31;100.00;96932.14;2141628;82;20946;-60
2021/12/24 11:22:04;;;;;;;34.27;16.12;;;;;;;2.32;100.00;96924.76;2185500;81;21475;-60
2021/12/24 11:25:05;;;;;;;36.88;15.88;;;;;;;2.39;100.00;96916.19;2168279;82;21041;-60
2021/12/24 11:28:05;;;;;;;36.85;16.23;;;;;;;2.39;100.00;96916.19;2185610;81;20955;-60
2021/12/24 11:31:06;;;;;;;39.55;17.95;;;;;;;2.41;100.00;96910.45;2168100;82;21047;-60
2021/12/24 11:34:06;;;;;;;42.35;19.62;;;;;;;2.43;100.00;96915.09;2185488;81;20972;-60
2021/12/24 11:37:07;;;;;;;42.67;19.45;;;;;;;2.42;100.00;96905.18;2168166;82;21483;-60
2021/12/24 11:40:08;;;;;;;43.00;18.98;;;;;;;2.42;100.00;96920.70;2185247;81;21098;-60
2021/12/24 11:43:08;;;;;;;43.45;18.65;;;;;;;2.48;100.00;96913.05;2167935;82;21051;-60
2021/12/24 11:46:09;;;;;;;39.53;16.65;;;;;;;2.58;100.00;96921.93;2185453;81;20972;-60
2021/12/24 11:49:09;;;;;;;39.27;16.07;;;;;;;2.65;100.00;96916.41;2168366;82;21032;-60
2021/12/24 11:52:09;;;;;;;44.05;17.87;;;;;;;2.79;100.00;96899.59;2190453;80;20960;-60
2021/12/24 11:55:10;;;;;;;43.78;19.87;;;;;;;2.85;100.00;96886.73;2171892;82;20962;-60
2021/12/24 11:58:10;;;;;;;42.83;17.75;;;;;;;2.84;100.00;96886.36;2192335;81;21461;-60
2021/12/24 12:01:11;;;;;;;39.10;17.75;;;;;;;2.80;100.00;96886.17;2171719;82;21498;-60
2021/12/24 12:04:11;;;;;;;39.38;16.73;;;;;;;2.76;100.00;96873.89;2192353;81;20995;-60
2021/12/24 12:07:15;;;;;;;50.43;21.10;;;;;;;2.76;100.00;96876.48;2171984;82;20980;-60
2021/12/24 12:10:14;;;;;;;40.75;17.55;;;;;;;2.75;100.00;96883.39;2165255;81;21549;-60
2021/12/24 12:13:15;;;;;;;39.67;17.25;;;;;;;2.75;100.00;96888.57;2172101;82;20973;-60
2021/12/24 12:16:15;;;;;;;37.53;16.45;;;;;;;2.71;100.00;96880.61;2192752;81;20987;-60
2021/12/24 12:19:22;;;;;;;39.08;16.40;;;;;;;2.64;100.00;96884.49;2171876;82;21067;-60
2021/12/24 12:22:21;;;;;;;39.98;16.95;;;;;;;2.58;100.00;96867.58;2165587;81;21471;-60
2021/12/24 12:25:20;;;;;;;36.93;15.83;;;;;;;2.58;100.00;96867.58;2146924;82;21025;-60
2021/12/24 12:28:26;;;;;;;35.05;14.13;;;;;;;2.60;100.00;96865.74;2192370;81;21015;-60
2021/12/24 12:31:25;;;;;;;35.73;14.25;;;;;;;2.67;100.00;96866.66;2146983;82;21020;-60
2021/12/24 12:34:25;;;;;;;34.03;14.55;;;;;;;2.72;100.00;96863.34;2165377;81;20983;-60
2021/12/24 12:37:26;;;;;;;34.33;14.65;;;;;;;2.74;100.00;96864.07;2171715;82;21029;-60
2021/12/24 12:40:26;;;;;;;36.23;15.32;;;;;;;2.76;100.00;96853.99;2191949;81;21042;-60
2021/12/24 12:43:28;;;;;;;36.60;15.40;;;;;;;2.75;100.00;96854.09;2171799;82;20989;-60
2021/12/24 12:46:31;;;;;;;35.52;14.63;;;;;;;2.74;100.00;96859.74;2192367;81;21505;-60
2021/12/24 12:49:33;;;;;;;33.25;13.40;;;;;;;2.75;100.00;96866.56;2146843;82;21009;-60
2021/12/24 12:52:35;;;;;;;30.08;12.35;;;;;;;2.73;100.00;96866.28;2169120;81;21014;-60
2021/12/24 12:55:36;;;;;;;34.20;14.87;;;;;;;2.75;100.00;96864.45;2149784;82;21501;-60
2021/12/24 12:58:37;;;;;;;32.58;13.88;;;;;;;2.73;100.00;96864.98;2196340;81;20995;-60
2021/12/24 13:01:37;;;;;;;34.45;13.98;;;;;;;2.68;100.00;96862.69;2172130;81;20958;-60
2021/12/24 13:04:38;;;;;;;37.45;15.38;;;;;;;2.66;100.00;96880.52;2195633;81;21051;-60
2021/12/24 13:07:38;;;;;;;41.18;17.77;;;;;;;2.64;100.00;96880.61;2172408;81;20985;-60
2021/12/24 13:10:39;;;;;;;45.20;18.50;;;;;;;2.63;100.00;96875.53;2196000;81;20967;-60
2021/12/24 13:13:40;;;;;;;38.92;17.20;;;;;;;2.65;100.00;96875.81;2172425;81;20985;-60
2021/12/24 13:22:45;;;;;;;38.85;17.50;;;;;;;2.67;100.00;96884.78;2170648;81;20991;-60
2021/12/24 13:25:45;;;;;;;44.00;19.50;;;;;;;2.66;100.00;96871.02;2171988;81;21542;-60
2021/12/24 13:28:46;;;;;;;40.30;16.60;;;;;;;2.68;100.00;96878.21;2195906;81;20976;-60
2021/12/24 13:31:46;;;;;;;39.67;15.98;;;;;;;2.70;100.00;96879.41;2172015;81;21032;-61
2021/12/24 13:34:46;;;;;;;40.92;17.70;;;;;;;2.69;100.00;96880.36;2196262;81;20976;-60
2021/12/24 13:37:47;;;;;;;45.58;20.60;;;;;;;2.67;100.00;96870.10;2172271;81;21025;-60
2021/12/24 13:40:48;;;;;;;52.58;21.15;;;;;;;2.64;100.00;96881.09;2196215;81;21058;-60
2021/12/24 13:43:48;;;;;;;52.17;24.27;;;;;;;2.66;100.00;96877.93;2172309;82;21053;-60
2021/12/24 13:46:49;;;;;;;47.35;20.60;;;;;;;2.68;100.00;96867.03;2196153;81;20962;-60
2021/12/24 13:55:54;;;;;;;52.00;21.70;;;;;;;2.75;100.00;96861.38;2149449;82;21012;-60
2021/12/24 13:58:54;;;;;;;50.98;22.02;;;;;;;2.76;100.00;96863.06;2196067;81;21553;-60
2021/12/24 14:01:55;;;;;;;45.98;19.75;;;;;;;2.77;100.00;96858.70;2171852;81;21543;-60
2021/12/24 14:04:56;;;;;;;40.63;18.85;;;;;;;2.77;100.00;96858.25;2196340;81;21462;-60
2021/12/24 14:07:57;;;;;;;44.70;20.50;;;;;;;2.84;100.00;96859.98;2172120;81;20983;-60
2021/12/24 14:10:57;;;;;;;38.00;16.60;;;;;;;2.89;100.00;96845.02;2196299;81;21039;-60
2021/12/24 14:14:04;;;;;;;43.42;17.10;;;;;;;2.93;100.00;96835.28;2172249;81;20969;-60
2021/12/24 14:20:06;;;;;;;34.98;14.70;;;;;;;3.02;100.00;96833.91;2172168;81;21105;-59
2021/12/24 14:23:03;;;;;;;33.92;14.70;;;;;;;3.06;100.00;96827.14;2170723;81;21043;-59
2021/12/24 14:26:04;;;;;;;35.70;14.65;;;;;;;3.09;100.00;96832.13;2171973;81;21099;-60
2021/12/24 14:29:07;;;;;;;39.45;16.60;;;;;;;3.16;100.00;96836.91;2196075;81;21572;-60
2021/12/24 14:32:07;;;;;;;53.05;20.45;;;;;;;3.16;100.00;96831.29;2172441;81;20984;-59
2021/12/24 14:35:08;;;;;;;35.83;14.60;;;;;;;3.19;100.00;96835.42;2196263;81;20935;-60
2021/12/24 14:38:10;;;;;;;31.00;11.95;;;;;;;3.22;100.00;96843.84;2172355;82;21444;-60
2021/12/24 14:41:10;;;;;;;31.10;11.57;;;;;;;3.25;100.00;96831.98;2170842;81;20998;-60
2021/12/24 14:44:11;;;;;;;31.93;11.12;;;;;;;3.25;100.00;96825.98;2172303;81;21012;-60
2021/12/24 14:47:11;;;;;;;32.65;12.63;;;;;;;3.26;100.00;96811.64;2196116;81;21454;-60
2021/12/24 14:50:12;;;;;;;35.43;14.13;;;;;;;3.30;100.00;96825.21;2172145;81;21524;-60
2021/12/24 14:53:12;;;;;;;36.63;14.70;;;;;;;3.34;100.00;96830.57;2187008;80;21071;-60
2021/12/24 14:56:13;;;;;;;34.15;13.30;;;;;;;3.36;100.00;96824.00;2168047;82;20997;-60
2021/12/24 14:59:13;;;;;;;38.30;15.15;;;;;;;3.40;100.00;96821.10;2185367;81;21482;-60
2021/12/24 15:02:14;;;;;;;44.10;16.67;;;;;;;3.41;100.00;96812.88;2168206;82;20993;-60
2021/12/24 15:05:15;;;;;;;47.98;20.88;;;;;;;3.39;100.00;96812.98;2185626;81;20999;-60
2021/12/24 15:08:15;;;;;;;66.80;25.72;;;;;;;3.41;100.00;96818.89;2168432;82;20985;-60
2021/12/24 15:11:16;;;;;;;58.35;23.18;;;;;;;3.42;100.00;96798.97;2185660;81;20987;-60
2021/12/24 15:14:18;;;;;;;41.28;15.10;;;;;;;3.45;100.00;96811.76;2168429;82;20988;-60
2021/12/24 15:17:18;;;;;;;37.88;16.20;;;;;;;3.45;100.00;96805.28;2185526;81;21027;-60
2021/12/24 15:20:20;;;;;;;40.20;16.17;;;;;;;3.49;100.00;96802.83;2168161;82;21519;-60
2021/12/24 15:23:20;;;;;;;38.90;16.83;;;;;;;3.53;100.00;96807.36;2185599;81;21046;-60
2021/12/24 15:26:21;;;;;;;39.98;15.98;;;;;;;3.52;100.00;96812.17;2168399;82;21692;-60
2021/12/24 15:29:21;;;;;;;40.73;15.80;;;;;;;3.52;100.00;96796.62;2185401;81;20983;-60
2021/12/24 15:32:21;;;;;;;38.88;16.00;;;;;;;3.54;100.00;96805.97;2168249;82;21456;-60
2021/12/24 15:35:22;;;;;;;35.60;13.75;;;;;;;3.58;100.00;96813.09;2185485;81;21458;-60
2021/12/24 15:38:22;;;;;;;39.75;14.68;;;;;;;3.60;100.00;96805.56;2168409;82;21036;-60
2021/12/24 15:41:23;;;;;;;35.75;14.20;;;;;;;3.64;100.00;96790.17;2185483;81;21044;-60
2021/12/24 15:44:24;;;;;;;36.30;14.75;;;;;;;3.69;100.00;96802.83;2168423;82;21000;-60
2021/12/24 15:47:24;;;;;;;36.75;14.75;;;;;;;3.73;100.00;96788.73;2185321;81;20979;-60
2021/12/24 15:50:25;;;;;;;30.50;12.33;;;;;;;3.74;100.00;96791.70;2167935;82;21571;-60